Time;durP1;ratioP1;P1;durP2;ratioP2;P2;SDS_P1;SDS_P2;PMS_P1;PMS_P2;Temp;Humidity;BMP_temperature;BMP_pressure;BME280_temperature;BME280_humidity;BME280_pressure;Samples;Min_cycle;Max_cycle;Signal;HPM_P1;HPM_P2
2023/01/27 00:01:15;;;;;;;16.47;7.63;;;;;;;-145.69;100.00;52729.56;5116417;28;20201;-80
2023/01/27 00:03:43;;;;;;;20.80;7.87;;;;;;;-145.69;100.00;52721.66;5116051;28;20212;-80
2023/01/27 00:06:14;;;;;;;19.70;8.20;;;;;;;-145.69;100.00;52731.56;5116117;28;20229;-78
2023/01/27 00:08:41;;;;;;;17.67;7.40;;;;;;;-145.69;100.00;52765.22;5116218;28;20201;-81
2023/01/27 00:13:55;;;;;;;18.20;7.67;;;;;;;-145.69;100.00;52745.41;5115899;28;20287;-80
2023/01/27 00:16:21;;;;;;;18.40;7.80;;;;;;;-145.69;100.00;52757.31;5115627;28;20206;-80
2023/01/27 00:18:48;;;;;;;18.13;7.53;;;;;;;-145.69;100.00;52749.38;5115989;28;20202;-79
2023/01/27 00:26:44;;;;;;;16.03;6.50;;;;;;;-145.69;100.00;52737.50;5115665;28;20583;-80
2023/01/27 00:29:10;;;;;;;15.53;7.20;;;;;;;-145.69;100.00;52747.41;5116106;28;20218;-79
2023/01/27 00:34:24;;;;;;;17.07;6.73;;;;;;;-145.69;100.00;52719.66;5116615;28;20200;-79
2023/01/27 00:36:51;;;;;;;11.83;5.97;;;;;;;-145.69;100.00;52747.41;5116690;28;20197;-80
2023/01/27 00:39:18;;;;;;;14.77;6.77;;;;;;;-145.69;100.00;52715.72;5116544;28;20244;-81
2023/01/27 00:41:44;;;;;;;18.27;6.87;;;;;;;-145.69;100.00;52733.53;5116577;28;20552;-80
2023/01/27 00:44:12;;;;;;;16.50;6.97;;;;;;;-145.69;100.00;52757.31;5116141;28;20200;-81
2023/01/27 00:46:38;;;;;;;16.00;6.20;;;;;;;-145.69;100.00;52749.38;5115481;28;20310;-80
2023/01/27 00:49:05;;;;;;;18.77;6.40;;;;;;;-145.69;100.00;52735.50;5115818;28;20209;-80
2023/01/27 00:51:31;;;;;;;13.10;5.73;;;;;;;-145.69;100.00;52727.59;5115761;28;20250;-80
2023/01/27 00:54:02;;;;;;;14.07;6.27;;;;;;;-145.69;100.00;52751.34;5116080;28;20200;-80
2023/01/27 00:56:28;;;;;;;13.40;5.90;;;;;;;-145.69;100.00;52743.44;5115872;28;20296;-80
2023/01/27 00:58:58;;;;;;;12.07;5.87;;;;;;;-145.69;100.00;52741.47;5113490;28;20545;-80
2023/01/27 01:01:32;;;;;;;13.10;5.97;;;;;;;-145.69;100.00;52737.50;5115764;28;20197;-80
2023/01/27 01:03:59;;;;;;;12.07;5.63;;;;;;;-145.69;100.00;52717.69;5115693;28;20589;-79
2023/01/27 01:06:26;;;;;;;13.90;5.50;;;;;;;-145.69;100.00;52731.56;5115233;28;20225;-81
2023/01/27 01:08:53;;;;;;;14.23;5.17;;;;;;;-145.69;100.00;52705.81;5115367;28;20246;-80
2023/01/27 01:11:21;;;;;;;10.77;5.13;;;;;;;-145.69;100.00;52802.84;5115379;28;20644;-80
2023/01/27 01:13:48;;;;;;;11.40;5.57;;;;;;;-145.69;100.00;52743.44;5115533;28;20193;-80
2023/01/27 01:16:18;;;;;;;10.43;5.00;;;;;;;-145.69;100.00;52733.53;5115338;28;20541;-80
2023/01/27 01:18:45;;;;;;;9.20;4.77;;;;;;;-145.69;100.00;52713.72;5115182;28;20223;-80
2023/01/27 01:21:12;;;;;;;10.93;4.67;;;;;;;-145.69;100.00;52779.09;5115577;28;20301;-79
2023/01/27 01:23:43;;;;;;;8.63;4.82;;;;;;;-145.69;100.00;52743.44;5115744;28;20530;-80
2023/01/27 01:26:11;;;;;;;10.70;5.10;;;;;;;-145.69;100.00;52729.56;5116386;28;20221;-80
2023/01/27 01:28:40;;;;;;;11.03;5.13;;;;;;;-145.69;100.00;52729.56;5115497;28;20271;-80
2023/01/27 01:31:19;;;;;;;11.07;4.53;;;;;;;-145.69;100.00;52743.44;5114849;28;20193;-81
2023/01/27 01:33:46;;;;;;;10.33;4.93;;;;;;;-145.69;100.00;52757.31;5116418;28;20198;-80
2023/01/27 01:36:14;;;;;;;12.47;5.30;;;;;;;-145.69;100.00;52735.50;5115557;28;20225;-80
2023/01/27 01:38:40;;;;;;;10.60;5.03;;;;;;;-145.69;100.00;52713.72;5114898;28;20547;-80
2023/01/27 01:41:11;;;;;;;11.60;5.03;;;;;;;-145.69;100.00;52721.66;5115268;28;20203;-81
2023/01/27 01:43:39;;;;;;;9.23;4.47;;;;;;;-145.69;100.00;52757.31;5094449;28;20209;-80
2023/01/27 01:46:08;;;;;;;10.37;4.77;;;;;;;-145.69;100.00;52745.41;5105132;28;20241;-80
2023/01/27 01:48:37;;;;;;;10.33;4.67;;;;;;;-145.69;100.00;52733.53;5114195;28;20205;-79
2023/01/27 01:51:09;;;;;;;8.87;4.23;;;;;;;-145.69;100.00;52763.25;5113956;28;20201;-80
2023/01/27 01:53:40;;;;;;;9.40;4.20;;;;;;;-145.69;100.00;52745.41;5114156;28;20201;-80
2023/01/27 01:56:12;;;;;;;10.30;4.80;;;;;;;-145.69;100.00;52763.25;5113397;28;20644;-79
2023/01/27 01:58:41;;;;;;;11.33;5.40;;;;;;;-145.69;100.00;52755.31;5114265;28;20292;-79
2023/01/27 02:01:07;;;;;;;10.33;5.00;;;;;;;-145.69;100.00;52741.47;5113078;28;20197;-80
2023/01/27 02:03:41;;;;;;;8.10;4.53;;;;;;;-145.69;100.00;52765.22;5113773;28;20201;-80
2023/01/27 02:06:08;;;;;;;9.10;4.50;;;;;;;-145.69;100.00;52745.41;5113557;28;20688;-80
2023/01/27 02:08:39;;;;;;;8.50;4.30;;;;;;;-145.69;100.00;52759.28;5114243;28;20227;-79
2023/01/27 02:11:09;;;;;;;8.37;4.67;;;;;;;-145.69;100.00;52777.09;5113330;28;20230;-78
2023/01/27 02:13:35;;;;;;;10.40;4.93;;;;;;;-145.69;100.00;52739.47;5113799;28;20299;-79
2023/01/27 02:16:04;;;;;;;8.90;4.70;;;;;;;-145.69;100.00;52781.06;5113641;28;20211;-78
2023/01/27 02:18:30;;;;;;;8.07;4.53;;;;;;;-145.69;100.00;52767.19;5113414;28;20660;-78
2023/01/27 02:20:57;;;;;;;9.10;4.77;;;;;;;-145.69;100.00;52761.25;5113141;28;20201;-79
2023/01/27 02:23:41;;;;;;;9.87;4.87;;;;;;;-145.69;100.00;52731.56;5113303;28;20649;-78
2023/01/27 02:26:14;;;;;;;9.57;4.70;;;;;;;-145.69;100.00;52729.56;5112377;28;20229;-78
2023/01/27 02:28:40;;;;;;;10.03;4.70;;;;;;;-145.69;100.00;52753.34;5113286;28;20197;-79
2023/01/27 02:31:07;;;;;;;8.40;4.17;;;;;;;-145.69;100.00;52753.34;5113338;28;20602;-79
2023/01/27 02:33:33;;;;;;;9.83;4.67;;;;;;;-145.69;100.00;52713.72;5113449;28;20194;-77
2023/01/27 02:36:03;;;;;;;8.97;4.47;;;;;;;-145.69;100.00;52757.31;5113094;28;20202;-78
2023/01/27 02:38:35;;;;;;;8.90;4.00;;;;;;;-145.69;100.00;52739.47;5112869;28;20197;-78
2023/01/27 02:41:07;;;;;;;9.37;4.47;;;;;;;-145.69;100.00;52775.13;5112813;28;20755;-78
2023/01/27 02:43:35;;;;;;;9.83;4.37;;;;;;;-145.69;100.00;52725.63;5113289;28;20197;-78
2023/01/27 02:46:04;;;;;;;8.93;4.70;;;;;;;-145.69;100.00;52729.56;5112909;28;20314;-78
2023/01/27 02:48:31;;;;;;;7.67;4.07;;;;;;;-145.69;100.00;52695.91;5112922;28;20199;-78
2023/01/27 02:50:57;;;;;;;10.60;4.90;;;;;;;-145.69;100.00;52765.22;5113292;28;20209;-78
2023/01/27 02:53:24;;;;;;;8.70;4.00;;;;;;;-145.69;100.00;52729.56;5113259;28;20193;-78
2023/01/27 02:55:50;;;;;;;9.07;4.07;;;;;;;-145.69;100.00;52789.00;5112470;28;20200;-78
2023/01/27 02:58:17;;;;;;;7.30;3.87;;;;;;;-145.69;100.00;52749.38;5113199;28;20201;-78
2023/01/27 03:00:45;;;;;;;11.53;4.43;;;;;;;-145.69;100.00;52711.75;5112653;28;20200;-78
2023/01/27 03:03:12;;;;;;;8.03;4.23;;;;;;;-145.69;100.00;52725.63;5112560;28;20201;-78
2023/01/27 03:05:39;;;;;;;7.77;4.10;;;;;;;-145.69;100.00;52725.63;5113025;28;20228;-78
2023/01/27 03:08:05;;;;;;;8.10;3.67;;;;;;;-145.69;100.00;52719.66;5113324;28;20784;-78
2023/01/27 03:10:32;;;;;;;6.90;3.10;;;;;;;-145.69;100.00;52757.31;5112938;28;20541;-78
2023/01/27 03:12:58;;;;;;;9.50;3.77;;;;;;;-145.69;100.00;52737.50;5112827;28;20194;-78
2023/01/27 03:18:12;;;;;;;10.37;3.97;;;;;;;-145.69;100.00;52753.34;5112979;28;20204;-78
2023/01/27 03:20:41;;;;;;;7.03;4.03;;;;;;;-145.69;100.00;52741.47;5113003;28;20205;-78
2023/01/27 03:23:07;;;;;;;8.90;4.00;;;;;;;-145.69;100.00;52733.53;5115269;28;20280;-78
2023/01/27 03:25:34;;;;;;;7.57;3.83;;;;;;;-145.69;100.00;52743.44;5116702;28;20193;-78
2023/01/27 03:28:00;;;;;;;8.43;3.90;;;;;;;-145.69;100.00;52743.44;5116387;28;20201;-78
2023/01/27 03:30:27;;;;;;;8.43;4.60;;;;;;;-145.69;100.00;52751.34;5116658;28;20205;-78
2023/01/27 03:32:54;;;;;;;7.73;4.40;;;;;;;-145.69;100.00;52751.34;5116456;28;20205;-78
2023/01/27 03:35:22;;;;;;;6.77;3.53;;;;;;;-145.69;100.00;52693.94;5116823;28;20208;-77
2023/01/27 03:46:21;;;;;;;9.33;4.30;;;;;;;-145.69;100.00;52753.34;5095984;28;20703;-78
2023/01/27 03:48:50;;;;;;;7.83;4.40;;;;;;;-145.69;100.00;52735.50;5095948;28;20202;-78
2023/01/27 03:51:19;;;;;;;9.17;4.70;;;;;;;-145.69;100.00;52741.47;5098644;28;20202;-78
2023/01/27 03:53:46;;;;;;;12.53;4.57;;;;;;;-145.69;100.00;52753.34;5116482;28;20549;-78
2023/01/27 03:56:18;;;;;;;6.80;4.10;;;;;;;-145.69;100.00;52697.88;5110788;28;20632;-77
2023/01/27 03:58:44;;;;;;;10.20;4.33;;;;;;;-145.69;100.00;52753.34;5116350;28;20205;-78
2023/01/27 04:01:17;;;;;;;8.33;4.03;;;;;;;-145.69;100.00;52767.19;5115616;28;20204;-78
2023/01/27 04:09:20;;;;;;;11.30;5.20;;;;;;;-145.69;100.00;52737.50;5116251;28;20682;-78
2023/01/27 04:11:56;;;;;;;11.70;5.17;;;;;;;-145.69;100.00;52699.88;5115843;28;20235;-77
2023/01/27 04:14:25;;;;;;;7.07;4.03;;;;;;;-145.69;100.00;52743.44;5115502;28;20211;-78
2023/01/27 04:16:55;;;;;;;8.83;4.00;;;;;;;-145.69;100.00;52745.41;5116010;28;20293;-78
2023/01/27 04:19:22;;;;;;;6.40;3.50;;;;;;;-145.69;100.00;52773.16;5115825;28;20568;-78
2023/01/27 04:21:50;;;;;;;7.40;4.17;;;;;;;-145.69;100.00;52765.22;5115374;28;20189;-79
2023/01/27 04:24:21;;;;;;;10.73;4.17;;;;;;;-145.69;100.00;52745.41;5115150;28;20208;-78
2023/01/27 04:26:48;;;;;;;10.47;4.17;;;;;;;-145.69;100.00;52721.66;5115615;28;20225;-79
2023/01/27 04:29:15;;;;;;;7.27;3.90;;;;;;;-145.69;100.00;52759.28;5114953;28;20560;-78
2023/01/27 04:31:42;;;;;;;8.87;4.00;;;;;;;-145.69;100.00;52753.34;5115429;28;20537;-78
2023/01/27 04:34:13;;;;;;;9.00;4.00;;;;;;;-145.69;100.00;52763.25;5115249;28;20193;-78
2023/01/27 04:36:40;;;;;;;7.73;4.00;;;;;;;-145.69;100.00;52743.44;5115013;28;20209;-78
2023/01/27 04:39:09;;;;;;;9.73;4.20;;;;;;;-145.69;100.00;52749.38;5115310;28;20201;-78
2023/01/27 04:41:36;;;;;;;8.17;4.30;;;;;;;-145.69;100.00;52741.47;5115454;28;20233;-78
2023/01/27 04:44:04;;;;;;;7.40;3.50;;;;;;;-145.69;100.00;52761.25;5115115;28;20205;-78
2023/01/27 04:46:30;;;;;;;9.53;3.80;;;;;;;-145.69;100.00;52753.34;5115184;28;20324;-78
2023/01/27 04:49:03;;;;;;;8.40;3.90;;;;;;;-145.69;100.00;52721.66;5114909;28;20198;-78
2023/01/27 04:51:29;;;;;;;9.40;4.30;;;;;;;-145.69;100.00;52769.19;5114805;28;20186;-77
2023/01/27 04:53:58;;;;;;;13.00;4.47;;;;;;;-145.69;100.00;52753.34;5115202;28;20201;-78
2023/01/27 04:56:32;;;;;;;8.97;4.47;;;;;;;-145.69;100.00;52769.19;5115211;28;20227;-78
2023/01/27 04:59:02;;;;;;;9.67;4.20;;;;;;;-145.69;100.00;52713.72;5115011;28;20197;-78
2023/01/27 05:01:29;;;;;;;9.00;3.63;;;;;;;-145.69;100.00;52759.28;5114753;28;20322;-77
2023/01/27 05:03:55;;;;;;;10.77;4.87;;;;;;;-145.69;100.00;52725.63;5114906;28;20200;-79
2023/01/27 05:06:27;;;;;;;11.93;4.47;;;;;;;-145.69;100.00;52757.31;5114758;28;20225;-78
2023/01/27 05:08:54;;;;;;;7.77;4.40;;;;;;;-145.69;100.00;52717.69;5115044;28;20212;-78
2023/01/27 05:11:23;;;;;;;12.27;5.13;;;;;;;-145.69;100.00;52713.72;5114762;28;20204;-78
2023/01/27 05:13:51;;;;;;;8.10;4.07;;;;;;;-145.69;100.00;52719.66;5114597;28;20254;-78
2023/01/27 05:16:20;;;;;;;11.73;4.77;;;;;;;-145.69;100.00;52733.53;5114078;28;20205;-78
2023/01/27 05:18:49;;;;;;;10.03;5.33;;;;;;;-145.69;100.00;52745.41;5114495;28;20207;-78
2023/01/27 05:21:17;;;;;;;13.53;5.00;;;;;;;-145.69;100.00;52727.59;5114474;28;20230;-79
2023/01/27 05:23:44;;;;;;;11.83;5.20;;;;;;;-145.69;100.00;52747.41;5114215;28;20189;-78
2023/01/27 05:26:13;;;;;;;12.87;5.67;;;;;;;-145.69;100.00;52709.78;5114261;28;20204;-78
2023/01/27 05:28:43;;;;;;;11.07;5.40;;;;;;;-145.69;100.00;52739.47;5114272;28;20564;-78
2023/01/27 05:31:17;;;;;;;11.80;6.07;;;;;;;-145.69;100.00;52717.69;5114459;28;20208;-77
2023/01/27 05:33:47;;;;;;;14.07;7.47;;;;;;;-145.69;100.00;52731.56;5114075;28;20631;-78
2023/01/27 05:36:15;;;;;;;14.90;6.53;;;;;;;-145.69;100.00;52733.53;5112889;28;20292;-78
2023/01/27 05:38:41;;;;;;;15.43;6.90;;;;;;;-145.69;100.00;52729.56;5114318;28;20209;-78
2023/01/27 05:41:09;;;;;;;16.57;7.10;;;;;;;-145.69;100.00;52761.25;5114229;28;20208;-78
2023/01/27 05:43:38;;;;;;;14.20;6.87;;;;;;;-145.69;100.00;52763.25;5113805;28;20198;-78
2023/01/27 05:46:06;;;;;;;17.07;7.20;;;;;;;-145.69;100.00;52765.22;5112940;28;20225;-78
2023/01/27 05:48:36;;;;;;;18.77;8.03;;;;;;;-145.69;100.00;52767.19;5114016;28;20208;-79
2023/01/27 05:51:03;;;;;;;16.90;7.07;;;;;;;-145.69;100.00;52737.50;5114056;28;20649;-78
2023/01/27 05:53:30;;;;;;;16.57;7.63;;;;;;;-145.69;100.00;52755.31;5113668;28;20537;-79
2023/01/27 05:55:58;;;;;;;21.43;7.67;;;;;;;-145.69;100.00;52749.38;5109360;28;20194;-79
2023/01/27 05:58:27;;;;;;;17.13;8.03;;;;;;;-145.69;100.00;52741.47;5113870;28;20627;-79
2023/01/27 06:00:54;;;;;;;18.10;7.77;;;;;;;-145.69;100.00;52741.47;5113492;28;20193;-78
2023/01/27 06:03:21;;;;;;;17.50;6.97;;;;;;;-145.69;100.00;52725.63;5113511;28;20212;-78
2023/01/27 06:05:54;;;;;;;14.53;6.53;;;;;;;-145.69;100.00;52792.94;5113459;28;20196;-78
2023/01/27 06:08:21;;;;;;;19.20;7.37;;;;;;;-145.69;100.00;52725.63;5113493;28;20225;-79
2023/01/27 06:10:48;;;;;;;16.30;7.17;;;;;;;-145.69;100.00;52733.53;5113680;28;20197;-78
2023/01/27 06:13:17;;;;;;;13.97;6.67;;;;;;;-145.69;100.00;52761.25;5113320;28;20712;-78
2023/01/27 06:15:45;;;;;;;15.90;7.43;;;;;;;-145.69;100.00;52749.38;5113784;28;20288;-79
2023/01/27 06:18:12;;;;;;;20.13;7.13;;;;;;;-145.69;100.00;52745.41;5113661;28;20279;-79
2023/01/27 06:20:38;;;;;;;21.17;8.07;;;;;;;-145.69;100.00;52753.34;5112776;28;20206;-77
2023/01/27 06:23:07;;;;;;;16.70;7.60;;;;;;;-145.69;100.00;52741.47;5113416;28;20205;-79
2023/01/27 06:25:38;;;;;;;21.63;8.30;;;;;;;-145.69;100.00;52761.25;5113452;28;20197;-79
2023/01/27 06:28:05;;;;;;;22.00;9.50;;;;;;;-145.69;100.00;52781.06;5113243;28;20229;-79
2023/01/27 06:30:33;;;;;;;27.97;9.30;;;;;;;-145.69;100.00;52735.50;5113269;28;20206;-77
2023/01/27 06:32:59;;;;;;;27.03;9.57;;;;;;;-145.69;100.00;52767.19;5113471;28;20574;-78
2023/01/27 06:35:28;;;;;;;29.93;10.47;;;;;;;-145.69;100.00;52747.41;5113018;28;20193;-78
2023/01/27 06:37:55;;;;;;;20.87;8.83;;;;;;;-145.69;100.00;52773.16;5112798;28;20204;-78
2023/01/27 06:40:23;;;;;;;22.93;9.60;;;;;;;-145.69;100.00;52723.63;5113188;28;20273;-77
2023/01/27 06:42:49;;;;;;;20.60;9.50;;;;;;;-145.69;100.00;52755.31;5113382;28;20292;-78
2023/01/27 06:45:16;;;;;;;20.87;8.43;;;;;;;-145.69;100.00;52727.59;5113242;28;20240;-78
2023/01/27 06:47:45;;;;;;;18.27;7.73;;;;;;;-145.69;100.00;52741.47;5113288;28;20233;-78
2023/01/27 06:50:12;;;;;;;19.23;8.57;;;;;;;-145.69;100.00;52715.72;5113010;28;20198;-78
2023/01/27 06:52:40;;;;;;;19.10;7.53;;;;;;;-145.69;100.00;52759.28;5113311;28;20201;-78
2023/01/27 06:55:07;;;;;;;23.73;8.73;;;;;;;-145.69;100.00;52751.34;5113094;28;20197;-78
2023/01/27 06:57:35;;;;;;;21.70;9.60;;;;;;;-145.69;100.00;52757.31;5114710;28;20652;-78
2023/01/27 07:00:02;;;;;;;25.80;10.07;;;;;;;-145.69;100.00;52735.50;5116483;28;20197;-78
2023/01/27 07:02:28;;;;;;;24.27;9.90;;;;;;;-145.69;100.00;52733.53;5117486;28;20276;-78
2023/01/27 07:04:55;;;;;;;29.80;10.17;;;;;;;-145.69;100.00;52755.31;5117245;28;20197;-78
2023/01/27 07:07:21;;;;;;;24.03;10.73;;;;;;;-145.69;100.00;52727.59;5117282;28;20232;-78
2023/01/27 07:09:48;;;;;;;28.80;10.63;;;;;;;-145.69;100.00;52721.66;5117074;28;20287;-79
2023/01/27 07:12:14;;;;;;;27.03;9.67;;;;;;;-145.69;100.00;52757.31;5117162;28;20197;-78
2023/01/27 07:14:42;;;;;;;21.53;9.47;;;;;;;-145.69;100.00;52731.56;5116651;28;20207;-79
2023/01/27 07:17:09;;;;;;;27.10;10.87;;;;;;;-145.69;100.00;52757.31;5116776;27;20212;-78
2023/01/27 07:19:35;;;;;;;30.77;11.10;;;;;;;-145.69;100.00;52729.56;5116825;28;20193;-78
2023/01/27 07:22:04;;;;;;;33.43;11.30;;;;;;;-145.69;100.00;52743.44;5116567;28;20208;-79
2023/01/27 07:24:30;;;;;;;31.03;11.63;;;;;;;-145.69;100.00;52741.47;5116824;28;20197;-78
2023/01/27 07:26:57;;;;;;;27.97;11.27;;;;;;;-145.69;100.00;52727.59;5116750;28;20225;-78
2023/01/27 07:29:24;;;;;;;26.53;9.93;;;;;;;-145.69;100.00;52737.50;5116540;28;20197;-78
2023/01/27 07:31:52;;;;;;;29.97;10.60;;;;;;;-145.69;100.00;52747.41;5116690;28;20201;-79
2023/01/27 07:34:18;;;;;;;22.53;9.23;;;;;;;-145.69;100.00;52743.44;5116261;28;20648;-79
2023/01/27 07:36:45;;;;;;;26.57;9.77;;;;;;;-145.69;100.00;52741.47;5116932;28;20541;-79
2023/01/27 07:39:11;;;;;;;24.27;9.53;;;;;;;-145.69;100.00;52794.94;5116494;28;20190;-79
2023/01/27 07:41:38;;;;;;;28.87;9.73;;;;;;;-145.69;100.00;52757.31;5116164;28;20193;-80
2023/01/27 07:44:07;;;;;;;24.43;9.63;;;;;;;-145.69;100.00;52753.34;5115798;28;20201;-79
2023/01/27 07:46:34;;;;;;;27.40;9.87;;;;;;;-145.69;100.00;52779.09;5115378;28;20233;-79
2023/01/27 07:49:02;;;;;;;56.13;16.23;;;;;;;-145.69;100.00;52765.22;5116161;28;20232;-78
2023/01/27 07:51:28;;;;;;;26.97;10.07;;;;;;;-145.69;100.00;52733.53;5116249;28;20279;-78
2023/01/27 07:53:55;;;;;;;25.97;10.17;;;;;;;-145.69;100.00;52755.31;5116697;28;20201;-78
2023/01/27 07:56:21;;;;;;;29.03;9.97;;;;;;;-145.69;100.00;52741.47;5116161;28;20197;-77
2023/01/27 07:58:47;;;;;;;28.87;11.20;;;;;;;-145.69;100.00;52721.66;5113370;28;20216;-77
2023/01/27 08:01:14;;;;;;;44.93;17.37;;;;;;;-145.69;100.00;52733.53;5116164;28;20212;-78
2023/01/27 08:03:41;;;;;;;26.63;9.70;;;;;;;-145.69;100.00;52733.53;5116143;28;20197;-78
2023/01/27 08:08:59;;;;;;;35.43;17.40;;;;;;;-145.69;100.00;52753.34;5115391;27;20596;-77
2023/01/27 08:11:36;;;;;;;25.03;10.20;;;;;;;-145.69;100.00;52727.59;5114821;28;20200;-77
2023/01/27 08:14:03;;;;;;;24.80;10.33;;;;;;;-145.69;100.00;52757.31;5115701;28;20197;-78
2023/01/27 08:16:37;;;;;;;22.07;9.53;;;;;;;-145.69;100.00;52745.41;5115465;28;20201;-77
2023/01/27 08:19:06;;;;;;;24.10;10.50;;;;;;;-145.69;100.00;52737.50;5114905;28;20675;-77
2023/01/27 08:21:52;;;;;;;26.10;9.67;;;;;;;-145.69;100.00;52761.25;5115505;28;20212;-77
2023/01/27 08:24:22;;;;;;;22.00;9.20;;;;;;;-145.69;100.00;52765.22;5115981;28;20197;-77
2023/01/27 08:26:49;;;;;;;20.17;9.07;;;;;;;-145.69;100.00;52721.66;5115960;28;20201;-77
2023/01/27 08:29:15;;;;;;;17.10;7.03;;;;;;;-145.69;100.00;52769.19;5115656;28;20246;-77
2023/01/27 08:31:42;;;;;;;22.40;8.37;;;;;;;-145.69;100.00;52765.22;5115482;28;20205;-77
2023/01/27 08:34:08;;;;;;;21.37;9.77;;;;;;;-145.69;100.00;52747.41;5114372;28;20438;-77
2023/01/27 08:36:36;;;;;;;20.33;8.20;;;;;;;-145.69;100.00;52757.31;5115056;28;20555;-76
2023/01/27 08:39:03;;;;;;;17.93;7.50;;;;;;;-145.69;100.00;52785.03;5115557;28;20197;-77
2023/01/27 08:41:29;;;;;;;16.97;7.30;;;;;;;-145.69;100.00;52765.22;5115402;28;20204;-77
2023/01/27 08:43:56;;;;;;;15.53;7.10;;;;;;;-145.69;100.00;52773.16;5114865;28;20204;-76
2023/01/27 08:46:22;;;;;;;15.87;6.53;;;;;;;-145.69;100.00;52737.50;5114886;28;20236;-76
2023/01/27 08:48:50;;;;;;;17.40;7.23;;;;;;;-145.69;100.00;52759.28;5115143;28;20253;-76
2023/01/27 08:51:17;;;;;;;16.43;6.90;;;;;;;-145.69;100.00;52725.63;5115356;28;20233;-76
2023/01/27 08:53:45;;;;;;;19.27;7.23;;;;;;;-145.69;100.00;52753.34;5114711;28;20201;-76
2023/01/27 08:56:13;;;;;;;12.23;5.63;;;;;;;-145.69;100.00;52717.69;5115177;28;20292;-76
2023/01/27 08:58:40;;;;;;;15.77;8.53;;;;;;;-145.69;100.00;52761.25;5115158;28;20205;-76
2023/01/27 09:01:08;;;;;;;13.20;5.83;;;;;;;-145.69;100.00;52735.50;5114785;28;20198;-76
2023/01/27 09:03:35;;;;;;;17.90;7.63;;;;;;;-145.69;100.00;52731.56;5114321;28;20204;-76
2023/01/27 09:06:03;;;;;;;14.57;6.30;;;;;;;-145.69;100.00;52745.41;5114176;28;20199;-76
2023/01/27 09:08:30;;;;;;;15.30;6.73;;;;;;;-145.69;100.00;52749.38;5114909;28;20225;-76
2023/01/27 09:10:58;;;;;;;14.80;7.87;;;;;;;-145.69;100.00;52761.25;5114280;28;20747;-76
2023/01/27 09:13:24;;;;;;;15.47;5.70;;;;;;;-145.69;100.00;52725.63;5114646;28;20200;-79
2023/01/27 09:15:51;;;;;;;13.00;5.73;;;;;;;-145.69;100.00;52737.50;5114519;28;20197;-77
2023/01/27 09:18:17;;;;;;;12.90;5.27;;;;;;;-145.69;100.00;52721.66;5114807;28;20201;-76
2023/01/27 09:20:44;;;;;;;13.87;5.30;;;;;;;-145.69;100.00;52737.50;5113144;28;20201;-76
2023/01/27 09:23:10;;;;;;;10.50;5.10;;;;;;;-145.69;100.00;52761.25;5114233;28;20590;-76
2023/01/27 09:25:37;;;;;;;8.23;4.27;;;;;;;-145.69;100.00;52767.19;5114759;28;20197;-76
2023/01/27 09:28:05;;;;;;;9.33;5.00;;;;;;;-145.69;100.00;52767.19;5114451;28;20232;-76
2023/01/27 09:30:31;;;;;;;10.80;5.07;;;;;;;-145.69;100.00;52727.59;5113721;28;20197;-76
2023/01/27 09:32:58;;;;;;;11.57;5.23;;;;;;;-145.69;100.00;52713.72;5114379;28;20197;-76
2023/01/27 09:35:26;;;;;;;13.17;5.80;;;;;;;-145.69;100.00;52777.09;5114113;28;20189;-77
2023/01/27 09:37:57;;;;;;;11.73;5.63;;;;;;;-145.69;100.00;52719.66;5113996;28;20209;-75
2023/01/27 09:40:30;;;;;;;13.03;5.70;;;;;;;-145.69;100.00;52721.66;5114012;28;20205;-77
2023/01/27 09:43:33;;;;;;;13.33;6.80;;;;;;;-145.69;100.00;52739.47;5113759;28;20205;-76
2023/01/27 09:46:21;;;;;;;14.70;6.47;;;;;;;-145.69;100.00;52749.38;5111662;28;20237;-74
2023/01/27 09:49:14;;;;;;;14.07;6.93;;;;;;;-145.69;100.00;52729.56;5100806;28;20229;-76
2023/01/27 09:51:54;;;;;;;15.70;7.70;;;;;;;-145.69;100.00;52745.41;5106345;28;20205;-75
2023/01/27 09:54:39;;;;;;;21.70;8.70;;;;;;;-145.69;100.00;52715.72;5114087;28;20556;-74
2023/01/27 09:57:15;;;;;;;20.73;8.47;;;;;;;-145.69;100.00;52725.63;5113210;28;20205;-75
2023/01/27 09:59:57;;;;;;;21.33;8.93;;;;;;;-145.69;100.00;52741.47;5113816;28;20197;-76
2023/01/27 10:02:45;;;;;;;23.77;9.57;;;;;;;-145.69;100.00;52729.56;5113524;28;20205;-76
2023/01/27 10:05:38;;;;;;;19.03;8.70;;;;;;;-145.69;100.00;52743.44;5111403;28;20201;-75
2023/01/27 10:08:30;;;;;;;21.97;9.47;;;;;;;-145.69;100.00;52727.59;5092922;28;20222;-76
2023/01/27 10:11:13;;;;;;;26.00;10.60;;;;;;;-145.69;100.00;52749.38;5083527;28;20197;-77
2023/01/27 10:13:51;;;;;;;22.40;10.37;;;;;;;-145.69;100.00;52725.63;5113650;28;20558;-76
2023/01/27 10:16:36;;;;;;;27.73;11.60;;;;;;;-145.69;100.00;52745.41;5112879;28;20193;-76
2023/01/27 10:19:20;;;;;;;48.63;19.23;;;;;;;-145.69;100.00;52745.41;5113465;28;20788;-76
2023/01/27 10:21:56;;;;;;;30.70;13.57;;;;;;;-145.69;100.00;52729.56;5113110;28;20720;-77
2023/01/27 10:24:35;;;;;;;25.63;10.63;;;;;;;-145.69;100.00;52741.47;5113589;28;20211;-76
2023/01/27 10:27:09;;;;;;;28.33;11.50;;;;;;;-145.69;100.00;52745.41;5113013;28;20205;-76
2023/01/27 10:29:44;;;;;;;30.70;12.17;;;;;;;-145.69;100.00;52757.31;5113320;28;20234;-76
2023/01/27 10:32:23;;;;;;;27.97;12.33;;;;;;;-145.69;100.00;52721.66;5112548;28;20730;-77
2023/01/27 10:35:00;;;;;;;31.60;11.30;;;;;;;-145.69;100.00;52725.63;5112998;28;20202;-76
2023/01/27 10:37:36;;;;;;;26.47;11.07;;;;;;;-145.69;100.00;52751.34;5112996;28;20648;-76
2023/01/27 10:40:07;;;;;;;28.00;10.63;;;;;;;-145.69;100.00;52729.56;5112732;28;20590;-77
2023/01/27 10:42:39;;;;;;;27.90;10.97;;;;;;;-145.69;100.00;52745.41;5113062;28;20220;-76
2023/01/27 10:45:23;;;;;;;26.60;10.43;;;;;;;-145.69;100.00;52769.19;5113097;28;20253;-76
2023/01/27 10:48:07;;;;;;;27.20;10.70;;;;;;;-145.69;100.00;52731.56;5113000;28;20663;-76
2023/01/27 10:50:38;;;;;;;32.77;13.90;;;;;;;-145.69;100.00;52729.56;5112956;28;20287;-76
2023/01/27 10:53:11;;;;;;;22.83;9.83;;;;;;;-145.69;100.00;52727.59;5113183;28;20197;-76
2023/01/27 10:55:41;;;;;;;36.10;15.82;;;;;;;-145.69;100.00;52745.41;5112084;28;20438;-76
2023/01/27 10:58:13;;;;;;;32.10;13.67;;;;;;;-145.69;100.00;52733.53;5112949;28;20262;-76
2023/01/27 11:00:44;;;;;;;26.63;10.53;;;;;;;-145.69;100.00;52741.47;5112346;28;20189;-76
2023/01/27 11:03:20;;;;;;;25.03;10.70;;;;;;;-145.69;100.00;52711.75;5092748;28;20194;-76
2023/01/27 11:05:51;;;;;;;22.47;9.73;;;;;;;-145.69;100.00;52743.44;5099451;28;20189;-76
2023/01/27 11:08:21;;;;;;;20.97;8.13;;;;;;;-145.69;100.00;52745.41;5112767;28;20287;-76
2023/01/27 11:14:03;;;;;;;25.17;10.23;;;;;;;-145.69;100.00;52747.41;5049667;28;20237;-76
2023/01/27 11:16:35;;;;;;;18.33;7.90;;;;;;;-145.69;100.00;52759.28;5049889;28;20195;-76
2023/01/27 11:19:13;;;;;;;18.90;7.90;;;;;;;-145.69;100.00;52735.50;5073274;28;20557;-76
2023/01/27 11:21:41;;;;;;;18.00;8.40;;;;;;;-145.69;100.00;52705.81;5092030;28;20198;-76
2023/01/27 11:24:21;;;;;;;18.07;8.53;;;;;;;-145.69;100.00;52701.84;5092533;28;20205;-76
2023/01/27 11:26:54;;;;;;;19.70;8.30;;;;;;;-145.69;100.00;52741.47;5092487;28;20202;-76
2023/01/27 11:29:28;;;;;;;19.87;8.03;;;;;;;-145.69;100.00;52751.34;5092178;28;20337;-76
2023/01/27 11:32:01;;;;;;;23.70;8.53;;;;;;;-145.69;100.00;52727.59;5103842;28;20216;-76
2023/01/27 11:34:34;;;;;;;20.20;7.63;;;;;;;-145.69;100.00;52743.44;5112798;28;20193;-76
2023/01/27 11:37:08;;;;;;;16.83;7.10;;;;;;;-145.69;100.00;52705.81;5112383;28;20655;-76
2023/01/27 11:39:35;;;;;;;20.40;8.30;;;;;;;-145.69;100.00;52757.31;5112668;28;20196;-76
2023/01/27 11:42:02;;;;;;;19.87;8.47;;;;;;;-145.69;100.00;52739.47;5112540;28;20194;-77
2023/01/27 11:44:33;;;;;;;18.80;7.50;;;;;;;-145.69;100.00;52749.38;5115079;28;20226;-76
2023/01/27 11:47:02;;;;;;;17.80;7.57;;;;;;;-145.69;100.00;52725.63;5116048;28;20648;-77